KPDT/PDT METAR and TAF weather

Enter ICAO airport designator
Station Type Date Time Source
KPDT METAR 2020/02/29 01:53 UTC NOAA

KPDT 290153Z 00000KT 10SM CLR 09/02 A2985 RMK AO2 SLP105 T00940022


Station Type Date Time Source
KPDT Decoded METAR 2020/02/29 01:53 UTC NOAA

PENDLETON MUNICIPAL AIRPORT, OR, United States (KPDT) 45-70N 118-83W 458M
Feb 28, 2020 - 08:53 PM EST / 2020.02.29 0153 UTC
Wind: Calm:0
Visibility: 10 mile(s):0
Sky conditions: clear
Temperature: 48.9 F (9.4 C)
Dew Point: 36.0 F (2.2 C)
Relative Humidity: 60%
Pressure (altimeter): 29.85 in. Hg (1010 hPa)
ob: KPDT 290153Z 00000KT 10SM CLR 09/02 A2985 RMK AO2 SLP105 T00940022
cycle: 2

Station Type Date Time Source
KPDT TAF 2020/02/29 02:28 UTC NOAA

TAF
AMD KPDT 290226Z 2902/2924 28010KT P6SM BKN250
FM290300 25016G26KT P6SM SCT080 BKN250
FM290900 25016G24KT P6SM BKN080
FM291200 24013KT P6SM SCT080 BKN250
FM291700 24018G28KT P6SM SCT050 BKN100

Example: see airport list